Time;durP1;ratioP1;P1;durP2;ratioP2;P2;SDS_P1;SDS_P2;PMS_P1;PMS_P2;Temp;Humidity;BMP_temperature;BMP_pressure;BME280_temperature;BME280_humidity;BME280_pressure;Samples;Min_cycle;Max_cycle;Signal;HPM_P1;HPM_P2
2021/08/22 00:01:40;;;;;;;4.68;4.28;;;;;;;;;;5094593;28;20048;-62
2021/08/22 00:04:05;;;;;;;4.97;4.47;;;;;;;;;;5094800;28;20085;-62
2021/08/22 00:06:31;;;;;;;5.07;4.40;;;;;;;;;;5094641;28;20043;-62
2021/08/22 00:08:56;;;;;;;4.57;4.25;;;;;;;;;;5094517;28;20110;-62
2021/08/22 00:11:22;;;;;;;5.55;5.05;;;;;;;;;;5094384;28;20070;-62
2021/08/22 00:13:47;;;;;;;6.32;4.47;;;;;;;;;;5093938;28;20028;-62
2021/08/22 00:16:13;;;;;;;4.97;4.50;;;;;;;;;;5076351;28;20107;-62
2021/08/22 00:18:38;;;;;;;5.03;4.53;;;;;;;;;;5094246;28;20478;-63
2021/08/22 00:21:03;;;;;;;5.72;4.57;;;;;;;;;;5094198;28;20040;-62
2021/08/22 00:23:29;;;;;;;4.97;4.35;;;;;;;;;;5075926;28;20425;-62
2021/08/22 00:25:54;;;;;;;4.65;4.25;;;;;;;;;;5076118;28;20043;-62
2021/08/22 00:28:20;;;;;;;5.10;4.60;;;;;;;;;;5094069;28;20410;-61
2021/08/22 00:30:45;;;;;;;5.70;4.43;;;;;;;;;;5093914;28;20036;-62
2021/08/22 00:33:11;;;;;;;6.03;4.57;;;;;;;;;;5093850;28;20036;-62
2021/08/22 00:35:36;;;;;;;6.15;4.20;;;;;;;;;;5094058;28;20502;-61
2021/08/22 00:38:02;;;;;;;6.82;4.30;;;;;;;;;;5093797;28;20063;-61
2021/08/22 00:40:27;;;;;;;5.85;4.28;;;;;;;;;;5094147;28;20042;-62
2021/08/22 00:42:53;;;;;;;4.65;4.18;;;;;;;;;;5093791;28;20040;-62
2021/08/22 00:45:18;;;;;;;4.57;4.07;;;;;;;;;;5093645;28;20102;-62
2021/08/22 00:47:47;;;;;;;4.57;4.15;;;;;;;;;;5093457;28;20027;-62
2021/08/22 00:50:17;;;;;;;5.40;4.00;;;;;;;;;;5093653;28;20044;-61
2021/08/22 00:52:42;;;;;;;3.97;3.67;;;;;;;;;;5093733;28;20036;-62
2021/08/22 00:55:09;;;;;;;4.10;3.70;;;;;;;;;;5075957;28;20170;-62
2021/08/22 00:57:35;;;;;;;4.18;3.80;;;;;;;;;;5058963;28;20035;-62
2021/08/22 01:00:01;;;;;;;5.68;4.10;;;;;;;;;;5093577;28;20061;-62
2021/08/22 01:02:33;;;;;;;4.85;3.97;;;;;;;;;;5093598;28;20030;-61
2021/08/22 01:05:14;;;;;;;5.20;4.68;;;;;;;;;;5093467;28;20039;-62
2021/08/22 01:07:43;;;;;;;8.10;6.93;;;;;;;;;;5075542;28;20036;-62
2021/08/22 01:10:09;;;;;;;13.95;10.45;;;;;;;;;;5058665;28;20462;-61
2021/08/22 01:12:36;;;;;;;23.50;15.80;;;;;;;;;;5093492;28;20039;-62
2021/08/22 01:15:03;;;;;;;37.80;22.75;;;;;;;;;;5093431;28;20459;-62
2021/08/22 01:17:31;;;;;;;48.72;29.27;;;;;;;;;;5093367;28;20130;-62
2021/08/22 01:19:56;;;;;;;40.47;25.17;;;;;;;;;;5093360;28;20043;-62
2021/08/22 01:22:23;;;;;;;42.95;23.58;;;;;;;;;;5093469;28;20044;-63
2021/08/22 01:24:50;;;;;;;32.20;20.52;;;;;;;;;;5093046;28;20028;-62
2021/08/22 01:27:16;;;;;;;18.77;12.80;;;;;;;;;;5096056;28;20040;-62
2021/08/22 01:29:46;;;;;;;7.40;6.03;;;;;;;;;;5079558;28;20032;-62
2021/08/22 01:32:12;;;;;;;6.05;5.45;;;;;;;;;;5097073;28;20093;-62
2021/08/22 01:34:38;;;;;;;6.07;5.55;;;;;;;;;;5097515;28;20067;-61
2021/08/22 01:37:03;;;;;;;7.05;6.35;;;;;;;;;;5097656;28;20133;-62
2021/08/22 01:39:31;;;;;;;10.02;8.15;;;;;;;;;;5097300;28;20032;-62
2021/08/22 01:41:57;;;;;;;8.48;7.60;;;;;;;;;;5079062;28;20063;-62
2021/08/22 01:44:23;;;;;;;9.70;7.70;;;;;;;;;;5097068;28;20095;-62
2021/08/22 01:46:49;;;;;;;8.90;6.90;;;;;;;;;;5097098;28;20044;-61
2021/08/22 01:49:15;;;;;;;7.50;5.57;;;;;;;;;;5097026;28;20028;-61
2021/08/22 01:51:41;;;;;;;5.75;5.20;;;;;;;;;;5097177;28;20482;-61
2021/08/22 01:54:09;;;;;;;6.60;5.35;;;;;;;;;;5097017;28;20035;-61
2021/08/22 01:56:38;;;;;;;6.95;6.07;;;;;;;;;;5096790;28;20375;-61
2021/08/22 01:59:03;;;;;;;5.95;4.50;;;;;;;;;;5097173;28;20081;-61
2021/08/22 02:01:29;;;;;;;5.85;5.35;;;;;;;;;;5097264;28;20039;-62
2021/08/22 02:04:10;;;;;;;5.25;4.75;;;;;;;;;;5096982;28;20028;-62
2021/08/22 02:06:38;;;;;;;5.20;4.70;;;;;;;;;;5096763;28;20043;-62
2021/08/22 02:09:09;;;;;;;6.05;5.13;;;;;;;;;;5096763;28;20421;-62
2021/08/22 02:11:42;;;;;;;5.95;5.38;;;;;;;;;;5078712;28;20036;-63
2021/08/22 02:14:08;;;;;;;5.43;4.97;;;;;;;;;;5096666;28;20455;-62
2021/08/22 02:16:33;;;;;;;6.65;5.72;;;;;;;;;;5078622;28;20028;-62
2021/08/22 02:18:59;;;;;;;6.30;5.07;;;;;;;;;;5096234;28;20082;-63
2021/08/22 02:21:25;;;;;;;5.20;4.72;;;;;;;;;;5096820;28;20031;-63
2021/08/22 02:23:52;;;;;;;6.45;5.35;;;;;;;;;;5096501;28;20036;-63
2021/08/22 02:26:18;;;;;;;5.88;5.32;;;;;;;;;;5096677;28;20477;-63
2021/08/22 02:28:44;;;;;;;5.18;4.68;;;;;;;;;;5096485;28;20032;-62
2021/08/22 02:31:13;;;;;;;9.18;5.00;;;;;;;;;;5096169;28;20031;-63
2021/08/22 02:33:38;;;;;;;5.20;4.55;;;;;;;;;;5096552;28;20036;-63
2021/08/22 02:36:04;;;;;;;5.07;4.68;;;;;;;;;;5096383;28;20055;-63
2021/08/22 02:38:29;;;;;;;5.07;4.55;;;;;;;;;;5096179;28;20620;-62
2021/08/22 02:40:55;;;;;;;5.68;4.95;;;;;;;;;;5078236;28;20544;-62
2021/08/22 02:43:20;;;;;;;4.88;4.47;;;;;;;;;;5096143;28;20041;-62
2021/08/22 02:45:46;;;;;;;4.95;4.55;;;;;;;;;;5095801;28;20036;-62
2021/08/22 02:48:12;;;;;;;6.07;4.47;;;;;;;;;;5095833;28;20043;-62
2021/08/22 02:50:38;;;;;;;4.95;4.50;;;;;;;;;;5077700;28;20520;-62
2021/08/22 02:53:05;;;;;;;5.13;4.63;;;;;;;;;;5096008;28;20055;-62
2021/08/22 02:55:30;;;;;;;4.95;4.45;;;;;;;;;;5095961;28;20111;-62
2021/08/22 02:57:56;;;;;;;4.32;3.92;;;;;;;;;;5077584;28;20109;-62
2021/08/22 03:00:22;;;;;;;4.95;4.40;;;;;;;;;;5095979;28;20031;-62
2021/08/22 03:02:48;;;;;;;4.22;3.83;;;;;;;;;;5095748;28;20394;-62
2021/08/22 03:05:14;;;;;;;4.70;4.30;;;;;;;;;;5060753;28;20089;-62
2021/08/22 03:07:39;;;;;;;4.55;4.18;;;;;;;;;;5095535;28;20086;-62
2021/08/22 03:10:05;;;;;;;5.13;3.90;;;;;;;;;;5077385;28;20074;-62
2021/08/22 03:12:30;;;;;;;4.32;3.92;;;;;;;;;;5095449;28;20032;-61
2021/08/22 03:14:56;;;;;;;4.70;4.35;;;;;;;;;;5095130;28;20763;-62
2021/08/22 03:17:21;;;;;;;5.20;3.95;;;;;;;;;;5095575;28;20051;-61
2021/08/22 03:19:46;;;;;;;4.93;3.80;;;;;;;;;;5095522;28;20031;-61
2021/08/22 03:22:12;;;;;;;4.35;3.85;;;;;;;;;;5095236;28;20055;-61
2021/08/22 03:24:37;;;;;;;5.65;3.90;;;;;;;;;;5094984;28;20047;-62
2021/08/22 03:27:03;;;;;;;4.35;3.95;;;;;;;;;;5095040;28;20047;-61
2021/08/22 03:29:28;;;;;;;4.95;4.15;;;;;;;;;;5095274;28;20111;-62
2021/08/22 03:31:54;;;;;;;4.70;4.03;;;;;;;;;;5094677;28;20397;-62
2021/08/22 03:34:19;;;;;;;4.40;4.05;;;;;;;;;;5095353;28;20111;-62
2021/08/22 03:36:45;;;;;;;5.05;4.57;;;;;;;;;;5077062;28;20040;-62
2021/08/22 03:39:11;;;;;;;4.20;3.83;;;;;;;;;;5095229;28;20037;-62
2021/08/22 03:41:36;;;;;;;4.68;4.28;;;;;;;;;;5094920;28;20059;-62
2021/08/22 03:44:04;;;;;;;4.80;4.43;;;;;;;;;;5095097;28;20474;-62
2021/08/22 03:46:29;;;;;;;4.45;4.05;;;;;;;;;;5094912;28;20044;-62
2021/08/22 03:48:55;;;;;;;4.43;4.13;;;;;;;;;;5094248;28;20024;-62
2021/08/22 03:51:23;;;;;;;3.83;3.53;;;;;;;;;;5094814;28;20032;-62
2021/08/22 03:53:49;;;;;;;4.63;4.10;;;;;;;;;;5094775;28;20016;-62
2021/08/22 03:56:16;;;;;;;4.70;3.75;;;;;;;;;;5094638;28;20047;-62
2021/08/22 03:58:42;;;;;;;4.30;4.00;;;;;;;;;;5094684;28;20035;-63
2021/08/22 04:01:07;;;;;;;4.43;4.13;;;;;;;;;;5094713;28;20040;-62
2021/08/22 04:03:33;;;;;;;5.57;3.65;;;;;;;;;;5094655;28;20028;-62
2021/08/22 04:06:36;;;;;;;4.22;3.78;;;;;;;;;;5083986;28;20246;-62
2021/08/22 04:09:01;;;;;;;4.75;4.35;;;;;;;;;;5094535;28;20375;-62
2021/08/22 04:11:27;;;;;;;4.28;3.88;;;;;;;;;;5094578;28;20039;-62
2021/08/22 04:13:53;;;;;;;4.32;3.88;;;;;;;;;;5094604;28;20123;-61
2021/08/22 04:16:19;;;;;;;4.07;3.83;;;;;;;;;;5094220;28;20489;-61
2021/08/22 04:18:44;;;;;;;4.57;4.13;;;;;;;;;;5094260;28;20032;-62
2021/08/22 04:21:10;;;;;;;4.28;3.97;;;;;;;;;;5094136;28;20367;-62
2021/08/22 04:23:37;;;;;;;3.97;3.67;;;;;;;;;;5076161;28;20137;-62
2021/08/22 04:26:02;;;;;;;3.67;3.38;;;;;;;;;;5093988;28;20043;-61
2021/08/22 04:28:28;;;;;;;9.95;4.18;;;;;;;;;;5094139;28;20025;-62
2021/08/22 04:30:53;;;;;;;4.38;3.97;;;;;;;;;;5094267;28;20055;-61
2021/08/22 04:33:19;;;;;;;4.72;4.28;;;;;;;;;;5094046;28;20052;-61
2021/08/22 04:35:44;;;;;;;4.78;4.03;;;;;;;;;;5093845;28;20039;-62
2021/08/22 04:38:10;;;;;;;4.22;3.92;;;;;;;;;;5075925;28;20047;-61
2021/08/22 04:40:36;;;;;;;5.10;4.40;;;;;;;;;;5093752;28;20032;-62
2021/08/22 04:43:02;;;;;;;4.88;4.22;;;;;;;;;;5075970;28;20135;-62
2021/08/22 04:45:27;;;;;;;6.32;4.63;;;;;;;;;;5093817;28;20111;-62
2021/08/22 04:47:53;;;;;;;5.20;4.70;;;;;;;;;;5093889;28;20047;-62
2021/08/22 04:50:18;;;;;;;4.70;4.40;;;;;;;;;;5093973;28;20056;-62
2021/08/22 04:52:44;;;;;;;4.80;4.35;;;;;;;;;;5093956;28;20461;-62
2021/08/22 04:55:09;;;;;;;5.68;4.85;;;;;;;;;;5075840;28;20034;-62
2021/08/22 04:57:35;;;;;;;5.05;4.55;;;;;;;;;;5093661;28;20032;-61
2021/08/22 05:00:00;;;;;;;4.63;4.28;;;;;;;;;;5093621;28;20032;-61
2021/08/22 05:02:26;;;;;;;5.38;4.60;;;;;;;;;;5093237;28;20043;-61
2021/08/22 05:04:51;;;;;;;4.78;4.43;;;;;;;;;;5093697;28;20047;-61
2021/08/22 05:07:17;;;;;;;5.10;4.60;;;;;;;;;;5075547;28;20028;-62
2021/08/22 05:09:42;;;;;;;6.40;4.55;;;;;;;;;;5093503;28;20024;-61
2021/08/22 05:12:08;;;;;;;5.00;4.55;;;;;;;;;;5093420;28;20036;-62
2021/08/22 05:14:34;;;;;;;5.38;4.88;;;;;;;;;;5093226;28;20058;-61
2021/08/22 05:17:00;;;;;;;4.60;4.28;;;;;;;;;;5093364;28;20490;-62
2021/08/22 05:19:25;;;;;;;5.53;4.90;;;;;;;;;;5075386;28;20034;-62
2021/08/22 05:21:51;;;;;;;4.53;4.22;;;;;;;;;;5093220;28;20094;-62
2021/08/22 05:24:16;;;;;;;5.82;5.15;;;;;;;;;;5093237;28;20043;-61
2021/08/22 05:26:42;;;;;;;5.75;4.85;;;;;;;;;;5093411;28;20040;-62
2021/08/22 05:29:07;;;;;;;5.65;5.15;;;;;;;;;;5093444;28;20024;-62
2021/08/22 05:31:33;;;;;;;7.68;4.88;;;;;;;;;;5092969;28;21584;-62
2021/08/22 05:33:59;;;;;;;7.00;6.00;;;;;;;;;;5093593;28;20055;-62
2021/08/22 05:36:24;;;;;;;6.40;5.40;;;;;;;;;;5093714;28;20047;-62
2021/08/22 05:38:50;;;;;;;6.05;5.45;;;;;;;;;;5093471;28;20114;-62
2021/08/22 05:41:16;;;;;;;8.10;6.13;;;;;;;;;;5093297;28;20082;-62
2021/08/22 05:43:42;;;;;;;8.77;7.20;;;;;;;;;;5093088;28;20503;-62
2021/08/22 05:46:08;;;;;;;7.47;6.53;;;;;;;;;;5093010;28;20505;-62
2021/08/22 05:48:33;;;;;;;8.95;6.80;;;;;;;;;;5093113;28;20094;-61
2021/08/22 05:51:00;;;;;;;8.82;7.20;;;;;;;;;;5092919;28;20048;-60
2021/08/22 05:53:25;;;;;;;7.28;6.57;;;;;;;;;;5093084;28;20031;-62
2021/08/22 05:55:51;;;;;;;6.35;5.75;;;;;;;;;;5093153;28;20039;-62
2021/08/22 05:58:16;;;;;;;7.60;6.25;;;;;;;;;;5093096;28;20460;-61
2021/08/22 06:00:42;;;;;;;7.30;6.47;;;;;;;;;;5092858;28;20032;-61
2021/08/22 06:03:07;;;;;;;6.97;6.28;;;;;;;;;;5092807;28;20020;-61
2021/08/22 06:05:33;;;;;;;6.07;5.47;;;;;;;;;;5074680;28;20131;-62
2021/08/22 06:07:58;;;;;;;7.30;5.97;;;;;;;;;;5092948;28;20521;-61
2021/08/22 06:10:24;;;;;;;6.95;6.32;;;;;;;;;;5092892;28;20028;-61
2021/08/22 06:12:49;;;;;;;7.10;6.35;;;;;;;;;;5094617;28;20047;-61
2021/08/22 06:15:15;;;;;;;6.57;5.88;;;;;;;;;;5096677;28;20405;-61
2021/08/22 06:17:40;;;;;;;7.53;6.80;;;;;;;;;;5096533;28;20032;-61
2021/08/22 06:20:06;;;;;;;7.15;6.45;;;;;;;;;;5096745;28;20039;-61
2021/08/22 06:22:32;;;;;;;6.78;6.18;;;;;;;;;;5096683;28;20031;-62
2021/08/22 06:24:57;;;;;;;7.55;6.82;;;;;;;;;;5096373;28;20348;-61
2021/08/22 06:27:23;;;;;;;6.35;5.75;;;;;;;;;;5096426;28;20028;-61
2021/08/22 06:29:49;;;;;;;6.65;6.05;;;;;;;;;;5096657;28;20505;-63
2021/08/22 06:32:14;;;;;;;5.88;5.38;;;;;;;;;;5096065;28;20044;-62
2021/08/22 06:34:40;;;;;;;6.30;5.70;;;;;;;;;;5096358;28;20070;-61
2021/08/22 06:37:06;;;;;;;6.55;6.05;;;;;;;;;;5096353;28;20123;-62
2021/08/22 06:39:32;;;;;;;8.57;6.97;;;;;;;;;;5096388;28;20071;-62
2021/08/22 06:41:58;;;;;;;7.93;7.15;;;;;;;;;;5077988;28;20036;-61
2021/08/22 06:44:23;;;;;;;7.97;7.03;;;;;;;;;;5077781;28;20043;-62
2021/08/22 06:46:49;;;;;;;6.32;5.70;;;;;;;;;;5096318;28;20485;-62
2021/08/22 06:49:14;;;;;;;6.88;6.28;;;;;;;;;;5077867;28;20119;-62
2021/08/22 06:51:40;;;;;;;7.32;6.68;;;;;;;;;;5078376;28;20437;-61
2021/08/22 06:54:05;;;;;;;6.43;5.57;;;;;;;;;;5077718;28;20036;-61
2021/08/22 06:56:32;;;;;;;7.75;7.15;;;;;;;;;;5095866;28;20064;-61
2021/08/22 06:58:57;;;;;;;6.40;5.85;;;;;;;;;;5095734;28;20036;-61
2021/08/22 07:01:23;;;;;;;7.70;7.00;;;;;;;;;;5095740;28;20477;-61
2021/08/22 07:03:48;;;;;;;8.35;7.00;;;;;;;;;;5095730;28;20075;-61
2021/08/22 07:06:15;;;;;;;8.15;7.30;;;;;;;;;;5095705;28;20032;-62
2021/08/22 07:08:40;;;;;;;7.55;6.95;;;;;;;;;;5095745;28;20039;-62
2021/08/22 07:11:06;;;;;;;6.85;5.95;;;;;;;;;;5095662;28;20474;-62
2021/08/22 07:13:33;;;;;;;6.18;5.57;;;;;;;;;;5095568;28;20047;-62
2021/08/22 07:15:58;;;;;;;6.85;6.18;;;;;;;;;;5095760;28;20051;-61
2021/08/22 07:18:24;;;;;;;8.10;6.53;;;;;;;;;;5095300;28;20441;-62
2021/08/22 07:20:49;;;;;;;7.65;6.85;;;;;;;;;;5095643;28;20116;-62
2021/08/22 07:23:15;;;;;;;7.90;7.28;;;;;;;;;;5076917;28;20119;-62
2021/08/22 07:25:41;;;;;;;8.38;7.53;;;;;;;;;;5094915;28;20028;-62
2021/08/22 07:28:06;;;;;;;8.52;7.72;;;;;;;;;;5095152;28;20060;-62
2021/08/22 07:30:32;;;;;;;7.13;6.43;;;;;;;;;;5077151;28;20482;-62
2021/08/22 07:33:01;;;;;;;9.52;7.55;;;;;;;;;;5095242;28;20044;-62
2021/08/22 07:35:26;;;;;;;7.00;6.35;;;;;;;;;;5095289;28;20036;-62
2021/08/22 07:37:52;;;;;;;9.07;5.95;;;;;;;;;;5094890;28;20040;-62
2021/08/22 07:40:17;;;;;;;7.28;6.60;;;;;;;;;;5095214;28;20028;-61
2021/08/22 07:42:43;;;;;;;6.35;5.90;;;;;;;;;;5095266;28;20433;-62
2021/08/22 07:45:08;;;;;;;7.07;5.72;;;;;;;;;;5095113;28;20466;-62
2021/08/22 07:47:35;;;;;;;6.50;5.95;;;;;;;;;;5077000;28;20032;-62
2021/08/22 07:50:02;;;;;;;5.70;5.15;;;;;;;;;;5095038;28;20051;-62
2021/08/22 07:52:28;;;;;;;5.55;5.15;;;;;;;;;;5095247;28;20028;-62
2021/08/22 07:54:53;;;;;;;5.47;5.13;;;;;;;;;;5094876;28;20418;-62
2021/08/22 07:57:21;;;;;;;5.60;5.10;;;;;;;;;;5094913;28;20040;-62
2021/08/22 07:59:46;;;;;;;5.90;5.30;;;;;;;;;;5076743;28;20024;-62
2021/08/22 08:02:11;;;;;;;5.57;5.18;;;;;;;;;;5094787;28;20032;-62
2021/08/22 08:04:37;;;;;;;6.20;5.65;;;;;;;;;;5094698;28;20490;-61
2021/08/22 08:07:02;;;;;;;4.93;4.55;;;;;;;;;;5094676;28;20036;-61
2021/08/22 08:09:28;;;;;;;5.20;4.80;;;;;;;;;;5094643;28;20024;-61
2021/08/22 08:11:56;;;;;;;5.18;4.78;;;;;;;;;;5094508;28;20036;-62
2021/08/22 08:14:22;;;;;;;5.65;5.25;;;;;;;;;;5094456;28;20020;-61
2021/08/22 08:16:48;;;;;;;4.50;4.10;;;;;;;;;;5094342;28;20032;-61
2021/08/22 08:19:13;;;;;;;4.80;4.25;;;;;;;;;;5094324;28;20027;-65
2021/08/22 08:21:40;;;;;;;4.80;4.40;;;;;;;;;;5094266;28;20036;-66
2021/08/22 08:24:05;;;;;;;5.35;4.95;;;;;;;;;;5094164;28;20107;-66
2021/08/22 08:26:31;;;;;;;7.63;5.28;;;;;;;;;;5094133;28;20139;-66
2021/08/22 08:28:57;;;;;;;4.35;4.05;;;;;;;;;;5094021;28;20024;-66
2021/08/22 08:31:23;;;;;;;4.55;4.15;;;;;;;;;;5094076;28;20039;-66
2021/08/22 08:33:48;;;;;;;5.05;4.75;;;;;;;;;;5094177;28;20036;-66
2021/08/22 08:36:14;;;;;;;4.75;4.35;;;;;;;;;;5093738;28;20044;-67
2021/08/22 08:38:40;;;;;;;4.57;4.28;;;;;;;;;;5094424;28;20077;-66
2021/08/22 08:41:07;;;;;;;5.22;4.15;;;;;;;;;;5093779;28;20048;-66
2021/08/22 08:43:32;;;;;;;4.65;4.35;;;;;;;;;;5093999;28;20032;-66
2021/08/22 08:46:07;;;;;;;4.63;4.30;;;;;;;;;;5093655;28;20035;-67
2021/08/22 08:48:44;;;;;;;4.00;3.70;;;;;;;;;;5093816;28;20044;-67
2021/08/22 08:51:28;;;;;;;4.18;3.78;;;;;;;;;;5093944;28;20044;-67
2021/08/22 08:54:05;;;;;;;4.35;4.03;;;;;;;;;;5094012;28;20028;-67
2021/08/22 08:56:30;;;;;;;4.35;3.95;;;;;;;;;;5094196;28;20097;-66
2021/08/22 08:58:58;;;;;;;4.13;3.83;;;;;;;;;;5094181;28;20028;-66
2021/08/22 09:01:23;;;;;;;4.70;4.30;;;;;;;;;;5094018;28;20078;-66
2021/08/22 09:04:07;;;;;;;4.30;4.03;;;;;;;;;;5094061;28;20055;-67
2021/08/22 09:07:02;;;;;;;4.82;4.43;;;;;;;;;;5093408;28;20032;-67
2021/08/22 09:09:46;;;;;;;4.35;4.05;;;;;;;;;;5069664;28;20475;-66
2021/08/22 09:12:35;;;;;;;3.92;3.70;;;;;;;;;;5093720;28;20039;-66
2021/08/22 09:15:19;;;;;;;4.38;4.07;;;;;;;;;;5064529;28;20044;-67
2021/08/22 09:18:04;;;;;;;4.22;4.00;;;;;;;;;;5093455;28;20071;-67
2021/08/22 09:20:55;;;;;;;3.75;3.45;;;;;;;;;;5093509;28;20028;-67
2021/08/22 09:23:44;;;;;;;4.60;4.30;;;;;;;;;;5069351;28;20044;-67
2021/08/22 09:26:28;;;;;;;4.30;4.00;;;;;;;;;;5064128;28;20047;-67
2021/08/22 09:29:16;;;;;;;3.63;3.40;;;;;;;;;;5093427;28;20051;-67
2021/08/22 09:32:01;;;;;;;3.50;3.20;;;;;;;;;;5092756;28;20068;-67
2021/08/22 09:34:50;;;;;;;3.30;3.10;;;;;;;;;;5075228;28;20047;-67
2021/08/22 09:37:27;;;;;;;4.22;3.92;;;;;;;;;;5093316;28;20472;-67
2021/08/22 09:40:28;;;;;;;3.40;3.10;;;;;;;;;;5093388;28;20040;-67
2021/08/22 09:43:13;;;;;;;4.07;3.65;;;;;;;;;;5031211;28;20037;-67
2021/08/22 09:45:57;;;;;;;3.85;3.55;;;;;;;;;;5088192;28;20075;-67
2021/08/22 09:48:41;;;;;;;4.20;3.63;;;;;;;;;;5095870;28;20036;-67
2021/08/22 09:51:10;;;;;;;4.00;3.70;;;;;;;;;;5097159;28;20466;-67
2021/08/22 09:53:41;;;;;;;4.47;3.58;;;;;;;;;;5097287;28;20107;-67
2021/08/22 09:56:27;;;;;;;4.20;3.90;;;;;;;;;;5096900;28;20039;-67
2021/08/22 09:58:52;;;;;;;4.18;3.42;;;;;;;;;;5065566;28;20137;-67
2021/08/22 10:01:18;;;;;;;3.65;3.35;;;;;;;;;;5078616;28;20071;-67
2021/08/22 10:03:55;;;;;;;3.47;3.17;;;;;;;;;;5097012;28;20122;-66
2021/08/22 10:06:30;;;;;;;3.58;3.38;;;;;;;;;;5097103;28;20072;-66
2021/08/22 10:08:56;;;;;;;3.47;3.17;;;;;;;;;;5097241;28;20451;-66
2021/08/22 10:11:24;;;;;;;3.47;3.17;;;;;;;;;;5079218;28;20028;-66
2021/08/22 10:13:50;;;;;;;3.70;3.40;;;;;;;;;;5097383;28;20462;-66
2021/08/22 10:16:19;;;;;;;3.95;3.08;;;;;;;;;;5096697;28;20028;-66
2021/08/22 10:18:45;;;;;;;3.55;3.17;;;;;;;;;;5096737;28;20036;-66
2021/08/22 10:21:12;;;;;;;3.15;2.95;;;;;;;;;;5096789;28;20047;-66
2021/08/22 10:23:43;;;;;;;3.33;3.13;;;;;;;;;;5096323;28;20504;-66
2021/08/22 10:26:29;;;;;;;3.58;3.38;;;;;;;;;;5096733;28;20425;-66
2021/08/22 10:28:59;;;;;;;4.10;3.42;;;;;;;;;;5085990;28;20040;-66
2021/08/22 10:31:45;;;;;;;3.58;3.28;;;;;;;;;;5096185;28;20044;-66
2021/08/22 10:34:13;;;;;;;3.47;3.17;;;;;;;;;;5096933;28;20032;-66
2021/08/22 10:36:39;;;;;;;3.30;3.10;;;;;;;;;;5096741;28;20028;-66
2021/08/22 10:39:21;;;;;;;3.35;3.05;;;;;;;;;;5096452;28;20047;-66
2021/08/22 10:41:47;;;;;;;3.38;3.17;;;;;;;;;;5096216;28;20486;-66
2021/08/22 10:44:31;;;;;;;3.30;3.10;;;;;;;;;;5096225;28;20032;-66
2021/08/22 10:46:57;;;;;;;3.00;2.80;;;;;;;;;;5078175;28;20044;-66
2021/08/22 10:49:42;;;;;;;3.20;2.97;;;;;;;;;;5061384;28;20035;-66
2021/08/22 10:52:24;;;;;;;2.88;2.67;;;;;;;;;;5096006;28;20079;-65
2021/08/22 10:55:08;;;;;;;3.55;3.25;;;;;;;;;;5095938;28;20028;-65
2021/08/22 10:57:49;;;;;;;3.42;3.13;;;;;;;;;;5096301;28;20043;-65
2021/08/22 11:00:38;;;;;;;2.88;2.67;;;;;;;;;;5096005;28;20036;-65
2021/08/22 11:03:19;;;;;;;2.85;2.65;;;;;;;;;;5095817;28;20036;-65
2021/08/22 11:05:46;;;;;;;2.78;2.58;;;;;;;;;;5095664;28;20032;-65
2021/08/22 11:08:16;;;;;;;3.28;3.00;;;;;;;;;;5095770;28;20024;-66
2021/08/22 11:10:57;;;;;;;2.95;2.75;;;;;;;;;;5095797;28;20127;-66
2021/08/22 11:13:23;;;;;;;2.60;2.47;;;;;;;;;;5095752;28;20081;-66
2021/08/22 11:15:48;;;;;;;3.55;2.75;;;;;;;;;;5095849;28;20025;-66
2021/08/22 11:18:17;;;;;;;2.45;2.35;;;;;;;;;;5095722;28;20485;-66
2021/08/22 11:20:43;;;;;;;3.20;2.88;;;;;;;;;;5095488;28;20036;-66
2021/08/22 11:23:16;;;;;;;3.00;2.80;;;;;;;;;;5077013;28;20398;-67
2021/08/22 11:25:42;;;;;;;2.85;2.65;;;;;;;;;;5095421;28;20470;-67
2021/08/22 11:28:09;;;;;;;3.80;2.70;;;;;;;;;;5095510;28;20032;-66
2021/08/22 11:30:35;;;;;;;3.17;2.97;;;;;;;;;;5095501;28;20547;-66
2021/08/22 11:33:00;;;;;;;3.05;2.80;;;;;;;;;;5076791;28;20048;-67
2021/08/22 11:35:26;;;;;;;2.88;2.67;;;;;;;;;;5095095;28;20037;-66
2021/08/22 11:37:53;;;;;;;2.53;2.40;;;;;;;;;;5095257;28;20040;-67
2021/08/22 11:40:20;;;;;;;3.03;2.60;;;;;;;;;;5095112;28;20481;-67
2021/08/22 11:42:49;;;;;;;2.72;2.55;;;;;;;;;;5094849;28;20032;-67
2021/08/22 11:45:19;;;;;;;2.92;2.72;;;;;;;;;;5094936;28;20036;-67
2021/08/22 11:47:44;;;;;;;;;;;;;;;;;;5095621;28;20437;-67
2021/08/22 11:50:11;;;;;;;2.90;2.70;;;;;;;;;;5095084;28;19904;-66
2021/08/22 11:52:38;;;;;;;3.00;2.67;;;;;;;;;;5095040;28;20067;-66
2021/08/22 11:55:07;;;;;;;2.80;2.60;;;;;;;;;;5094678;28;20044;-67
2021/08/22 11:57:34;;;;;;;4.60;2.90;;;;;;;;;;5094728;28;20062;-67
2021/08/22 12:00:05;;;;;;;3.00;2.80;;;;;;;;;;5094696;28;20036;-67
2021/08/22 12:02:38;;;;;;;3.08;2.88;;;;;;;;;;5094725;28;20047;-66
2021/08/22 12:05:16;;;;;;;3.00;2.80;;;;;;;;;;5076255;28;20071;-67
2021/08/22 12:07:43;;;;;;;3.15;2.72;;;;;;;;;;5094773;28;20028;-67
2021/08/22 12:10:19;;;;;;;3.03;2.83;;;;;;;;;;5075975;28;20025;-66
2021/08/22 12:12:44;;;;;;;3.28;2.97;;;;;;;;;;5094852;28;20040;-66
2021/08/22 12:15:10;;;;;;;2.83;2.63;;;;;;;;;;5094587;28;20077;-66
2021/08/22 12:17:35;;;;;;;2.78;2.53;;;;;;;;;;5094187;28;20093;-66
2021/08/22 12:20:16;;;;;;;2.85;2.65;;;;;;;;;;5094653;28;20036;-66
2021/08/22 12:22:41;;;;;;;3.00;2.70;;;;;;;;;;5094294;28;20374;-66
2021/08/22 12:25:07;;;;;;;2.70;2.55;;;;;;;;;;5094337;28;20031;-65
2021/08/22 12:27:36;;;;;;;3.20;2.95;;;;;;;;;;5094486;28;20512;-66
2021/08/22 12:30:10;;;;;;;2.65;2.45;;;;;;;;;;5094723;28;20039;-66
2021/08/22 12:32:36;;;;;;;5.00;4.50;;;;;;;;;;5075876;28;20047;-66
2021/08/22 12:35:06;;;;;;;4.18;2.75;;;;;;;;;;5094230;28;20035;-65
2021/08/22 12:37:31;;;;;;;3.05;2.85;;;;;;;;;;5094424;28;20033;-65
2021/08/22 12:39:58;;;;;;;4.72;4.15;;;;;;;;;;5075972;28;20031;-66
2021/08/22 12:42:24;;;;;;;4.47;3.67;;;;;;;;;;5094266;28;20035;-66
2021/08/22 12:44:49;;;;;;;3.13;2.92;;;;;;;;;;5093796;28;20567;-66
2021/08/22 12:47:14;;;;;;;3.42;3.22;;;;;;;;;;5093901;28;20118;-66
2021/08/22 12:49:40;;;;;;;3.20;3.00;;;;;;;;;;5094028;28;20035;-66
2021/08/22 12:52:09;;;;;;;3.40;3.15;;;;;;;;;;5093907;28;20036;-66
2021/08/22 12:54:35;;;;;;;3.25;3.05;;;;;;;;;;5094299;28;20025;-66
2021/08/22 12:57:01;;;;;;;3.50;3.20;;;;;;;;;;5093511;28;20032;-66
2021/08/22 12:59:26;;;;;;;3.10;2.80;;;;;;;;;;5094042;28;20030;-66
2021/08/22 13:01:52;;;;;;;3.88;3.00;;;;;;;;;;5094113;28;20139;-66
2021/08/22 13:04:21;;;;;;;4.15;3.85;;;;;;;;;;5093933;28;20024;-66
2021/08/22 13:06:48;;;;;;;3.70;3.40;;;;;;;;;;5093611;28;20035;-66
2021/08/22 13:09:13;;;;;;;3.42;3.22;;;;;;;;;;5075789;28;20374;-66
2021/08/22 13:11:39;;;;;;;3.90;3.60;;;;;;;;;;5092953;28;20043;-66
2021/08/22 13:14:07;;;;;;;3.50;3.30;;;;;;;;;;5093705;28;20103;-66
2021/08/22 13:16:33;;;;;;;3.42;3.13;;;;;;;;;;5093591;28;20047;-66
2021/08/22 13:18:58;;;;;;;3.40;3.20;;;;;;;;;;5093573;28;20035;-66
2021/08/22 13:21:24;;;;;;;3.50;3.20;;;;;;;;;;5092892;28;20076;-66
2021/08/22 13:23:52;;;;;;;3.40;3.10;;;;;;;;;;5093185;28;20054;-66
2021/08/22 13:26:18;;;;;;;3.25;3.03;;;;;;;;;;5093332;28;20046;-66
2021/08/22 13:28:44;;;;;;;3.65;3.35;;;;;;;;;;5093367;28;20111;-66
2021/08/22 13:31:10;;;;;;;3.35;3.15;;;;;;;;;;5093145;28;20071;-66
2021/08/22 13:33:36;;;;;;;4.00;3.60;;;;;;;;;;5093147;28;20028;-66
2021/08/22 13:36:01;;;;;;;3.70;3.33;;;;;;;;;;5093558;28;20020;-66
2021/08/22 13:38:27;;;;;;;3.78;3.47;;;;;;;;;;5093512;28;20402;-66
2021/08/22 13:40:53;;;;;;;3.53;3.20;;;;;;;;;;5093397;28;20036;-66
2021/08/22 13:43:20;;;;;;;4.03;3.10;;;;;;;;;;5093308;28;20040;-66
2021/08/22 13:45:46;;;;;;;3.92;3.25;;;;;;;;;;5093249;28;20024;-66
2021/08/22 13:48:11;;;;;;;3.28;3.08;;;;;;;;;;5093073;28;20435;-66
2021/08/22 13:50:37;;;;;;;3.83;3.50;;;;;;;;;;5093439;28;20024;-67
2021/08/22 13:53:04;;;;;;;4.55;3.13;;;;;;;;;;5093376;28;20036;-66
2021/08/22 13:59:05;;;;;;;5.70;3.72;;;;;;;;;;5093731;28;20587;-66
2021/08/22 14:08:41;;;;;;;4.80;3.90;;;;;;;;;;5093409;28;20031;-66
2021/08/22 14:14:42;;;;;;;6.20;4.47;;;;;;;;;;5093587;28;20137;-66
2021/08/22 14:20:43;;;;;;;10.50;4.22;;;;;;;;;;5093258;28;20088;-67
2021/08/22 14:26:43;;;;;;;5.38;4.35;;;;;;;;;;5093171;28;20047;-67
2021/08/22 14:36:19;;;;;;;6.05;4.15;;;;;;;;;;5097037;28;20397;-67
2021/08/22 14:42:20;;;;;;;4.40;3.88;;;;;;;;;;5096945;28;20113;-67
2021/08/22 14:48:21;;;;;;;3.65;3.40;;;;;;;;;;5096798;28;20058;-67
2021/08/22 14:54:21;;;;;;;4.22;3.45;;;;;;;;;;5096665;28;20090;-67
2021/08/22 15:00:21;;;;;;;4.40;2.92;;;;;;;;;;5096546;28;20027;-67
2021/08/22 15:06:21;;;;;;;7.85;4.07;;;;;;;;;;5096469;28;20046;-67
2021/08/22 15:12:22;;;;;;;4.38;3.47;;;;;;;;;;5096078;28;20033;-67
2021/08/22 15:18:23;;;;;;;4.90;3.45;;;;;;;;;;5096204;28;20054;-67
2021/08/22 15:24:27;;;;;;;3.97;3.35;;;;;;;;;;5096045;28;20023;-67
2021/08/22 15:30:28;;;;;;;3.65;3.35;;;;;;;;;;5095697;28;20085;-67
2021/08/22 15:36:17;;;;;;;3.70;3.35;;;;;;;;;;5093952;28;20042;-67
2021/08/22 15:38:43;;;;;;;6.25;3.67;;;;;;;;;;5094715;28;20036;-67
2021/08/22 15:41:09;;;;;;;3.83;3.45;;;;;;;;;;5095142;28;20024;-67
2021/08/22 15:43:34;;;;;;;3.65;3.33;;;;;;;;;;5094949;28;20040;-67
2021/08/22 15:46:00;;;;;;;4.22;3.70;;;;;;;;;;5093785;28;20039;-67
2021/08/22 15:48:26;;;;;;;4.25;3.35;;;;;;;;;;5094914;28;20036;-67
2021/08/22 15:50:51;;;;;;;3.80;3.50;;;;;;;;;;5095021;28;20028;-67
2021/08/22 15:53:18;;;;;;;3.85;3.47;;;;;;;;;;5095027;28;20051;-66